sensor_id;sensor_type;location;lat;lon;timestamp;P1;durP1;ratioP1;P2;durP2;ratioP2
70313;SDS011;57725;47.526;18.986;2023-03-01T00:02:03;12.02;;;7.55;;
70313;SDS011;57725;47.526;18.986;2023-03-01T00:04:29;11.23;;;7.38;;
70313;SDS011;57725;47.526;18.986;2023-03-01T00:07:00;9.38;;;7.13;;
70313;SDS011;57725;47.526;18.986;2023-03-01T00:09:25;10.93;;;7.60;;
70313;SDS011;57725;47.526;18.986;2023-03-01T00:11:53;11.27;;;7.78;;
70313;SDS011;57725;47.526;18.986;2023-03-01T00:14:21;11.85;;;7.82;;
70313;SDS011;57725;47.526;18.986;2023-03-01T00:16:46;13.25;;;8.50;;
70313;SDS011;57725;47.526;18.986;2023-03-01T00:19:13;11.77;;;8.02;;
70313;SDS011;57725;47.526;18.986;2023-03-01T00:21:42;10.95;;;7.97;;
70313;SDS011;57725;47.526;18.986;2023-03-01T00:24:08;12.18;;;7.65;;
70313;SDS011;57725;47.526;18.986;2023-03-01T00:26:34;11.60;;;7.93;;
70313;SDS011;57725;47.526;18.986;2023-03-01T00:29:02;12.05;;;8.07;;
70313;SDS011;57725;47.526;18.986;2023-03-01T00:31:29;11.30;;;7.72;;
70313;SDS011;57725;47.526;18.986;2023-03-01T00:33:59;11.07;;;8.10;;
70313;SDS011;57725;47.526;18.986;2023-03-01T00:36:31;12.50;;;8.23;;
70313;SDS011;57725;47.526;18.986;2023-03-01T00:38:59;11.32;;;8.07;;
70313;SDS011;57725;47.526;18.986;2023-03-01T00:41:29;12.25;;;8.80;;
70313;SDS011;57725;47.526;18.986;2023-03-01T00:43:54;13.35;;;7.60;;
70313;SDS011;57725;47.526;18.986;2023-03-01T00:46:21;10.75;;;7.88;;
70313;SDS011;57725;47.526;18.986;2023-03-01T00:48:49;13.15;;;8.48;;
70313;SDS011;57725;47.526;18.986;2023-03-01T00:51:22;11.65;;;7.80;;
70313;SDS011;57725;47.526;18.986;2023-03-01T00:53:53;10.98;;;7.82;;
70313;SDS011;57725;47.526;18.986;2023-03-01T00:56:20;14.43;;;8.27;;
70313;SDS011;57725;47.526;18.986;2023-03-01T00:58:46;11.60;;;8.50;;
70313;SDS011;57725;47.526;18.986;2023-03-01T01:01:13;10.93;;;7.82;;
70313;SDS011;57725;47.526;18.986;2023-03-01T01:06:18;10.57;;;7.72;;
70313;SDS011;57725;47.526;18.986;2023-03-01T01:08:48;12.77;;;9.00;;
70313;SDS011;57725;47.526;18.986;2023-03-01T01:11:18;11.68;;;8.05;;
70313;SDS011;57725;47.526;18.986;2023-03-01T01:13:47;12.10;;;7.93;;
70313;SDS011;57725;47.526;18.986;2023-03-01T01:16:17;12.77;;;9.30;;
70313;SDS011;57725;47.526;18.986;2023-03-01T01:18:44;11.93;;;8.93;;
70313;SDS011;57725;47.526;18.986;2023-03-01T01:21:11;11.82;;;8.45;;
70313;SDS011;57725;47.526;18.986;2023-03-01T01:23:40;13.38;;;8.73;;
70313;SDS011;57725;47.526;18.986;2023-03-01T01:26:12;14.00;;;9.30;;
70313;SDS011;57725;47.526;18.986;2023-03-01T01:28:43;12.18;;;8.60;;
70313;SDS011;57725;47.526;18.986;2023-03-01T01:31:11;13.65;;;9.35;;
70313;SDS011;57725;47.526;18.986;2023-03-01T01:33:37;14.60;;;9.55;;
70313;SDS011;57725;47.526;18.986;2023-03-01T01:36:03;12.63;;;8.48;;
70313;SDS011;57725;47.526;18.986;2023-03-01T01:38:32;13.32;;;8.95;;
70313;SDS011;57725;47.526;18.986;2023-03-01T01:40:58;12.40;;;9.05;;
70313;SDS011;57725;47.526;18.986;2023-03-01T01:45:53;13.57;;;8.73;;
70313;SDS011;57725;47.526;18.986;2023-03-01T01:48:21;15.43;;;9.18;;
70313;SDS011;57725;47.526;18.986;2023-03-01T01:50:53;14.48;;;9.15;;
70313;SDS011;57725;47.526;18.986;2023-03-01T01:53:26;14.32;;;8.95;;
70313;SDS011;57725;47.526;18.986;2023-03-01T01:55:55;11.90;;;8.13;;
70313;SDS011;57725;47.526;18.986;2023-03-01T01:58:23;11.65;;;8.73;;
70313;SDS011;57725;47.526;18.986;2023-03-01T02:00:51;13.15;;;9.15;;
70313;SDS011;57725;47.526;18.986;2023-03-01T02:03:18;13.95;;;8.88;;
70313;SDS011;57725;47.526;18.986;2023-03-01T02:08:23;11.48;;;8.40;;
70313;SDS011;57725;47.526;18.986;2023-03-01T02:10:51;11.80;;;8.32;;
70313;SDS011;57725;47.526;18.986;2023-03-01T02:13:22;17.80;;;8.82;;
70313;SDS011;57725;47.526;18.986;2023-03-01T02:15:48;11.60;;;8.38;;
70313;SDS011;57725;47.526;18.986;2023-03-01T02:18:17;12.48;;;9.05;;
70313;SDS011;57725;47.526;18.986;2023-03-01T02:20:55;12.57;;;8.60;;
70313;SDS011;57725;47.526;18.986;2023-03-01T02:23:31;14.32;;;9.65;;
70313;SDS011;57725;47.526;18.986;2023-03-01T02:26:33;12.75;;;8.75;;
70313;SDS011;57725;47.526;18.986;2023-03-01T02:29:11;12.75;;;8.93;;
70313;SDS011;57725;47.526;18.986;2023-03-01T02:31:36;12.73;;;8.55;;
70313;SDS011;57725;47.526;18.986;2023-03-01T02:34:18;14.82;;;10.05;;
70313;SDS011;57725;47.526;18.986;2023-03-01T02:37:03;12.30;;;8.45;;
70313;SDS011;57725;47.526;18.986;2023-03-01T02:39:40;13.30;;;9.07;;
70313;SDS011;57725;47.526;18.986;2023-03-01T02:42:12;13.55;;;9.23;;
70313;SDS011;57725;47.526;18.986;2023-03-01T02:44:41;13.18;;;9.10;;
70313;SDS011;57725;47.526;18.986;2023-03-01T02:47:07;12.32;;;8.15;;
70313;SDS011;57725;47.526;18.986;2023-03-01T02:49:35;12.15;;;8.25;;
70313;SDS011;57725;47.526;18.986;2023-03-01T02:57:09;13.02;;;8.68;;
70313;SDS011;57725;47.526;18.986;2023-03-01T02:59:35;13.38;;;8.90;;
70313;SDS011;57725;47.526;18.986;2023-03-01T03:02:06;11.88;;;8.30;;
70313;SDS011;57725;47.526;18.986;2023-03-01T03:04:35;12.85;;;8.52;;
70313;SDS011;57725;47.526;18.986;2023-03-01T03:07:00;13.65;;;9.25;;
70313;SDS011;57725;47.526;18.986;2023-03-01T03:09:26;14.70;;;9.13;;
70313;SDS011;57725;47.526;18.986;2023-03-01T03:11:53;11.48;;;7.72;;
70313;SDS011;57725;47.526;18.986;2023-03-01T03:14:19;12.07;;;8.77;;
70313;SDS011;57725;47.526;18.986;2023-03-01T03:16:45;11.68;;;8.40;;
70313;SDS011;57725;47.526;18.986;2023-03-01T03:19:21;13.35;;;9.23;;
70313;SDS011;57725;47.526;18.986;2023-03-01T03:21:47;13.13;;;8.65;;
70313;SDS011;57725;47.526;18.986;2023-03-01T03:24:12;12.57;;;8.52;;
70313;SDS011;57725;47.526;18.986;2023-03-01T03:26:38;12.63;;;9.15;;
70313;SDS011;57725;47.526;18.986;2023-03-01T03:29:05;12.82;;;8.23;;
70313;SDS011;57725;47.526;18.986;2023-03-01T03:31:33;11.32;;;8.00;;
70313;SDS011;57725;47.526;18.986;2023-03-01T03:33:59;11.45;;;8.57;;
70313;SDS011;57725;47.526;18.986;2023-03-01T03:36:24;11.80;;;8.05;;
70313;SDS011;57725;47.526;18.986;2023-03-01T03:38:56;12.07;;;8.32;;
70313;SDS011;57725;47.526;18.986;2023-03-01T03:41:30;11.70;;;8.35;;
70313;SDS011;57725;47.526;18.986;2023-03-01T03:43:57;12.35;;;8.18;;
70313;SDS011;57725;47.526;18.986;2023-03-01T03:46:23;13.48;;;8.88;;
70313;SDS011;57725;47.526;18.986;2023-03-01T03:48:48;11.98;;;8.13;;
70313;SDS011;57725;47.526;18.986;2023-03-01T03:51:17;11.88;;;8.63;;
70313;SDS011;57725;47.526;18.986;2023-03-01T03:53:47;11.98;;;8.52;;
70313;SDS011;57725;47.526;18.986;2023-03-01T03:56:13;12.70;;;7.63;;
70313;SDS011;57725;47.526;18.986;2023-03-01T03:58:39;13.82;;;8.35;;
70313;SDS011;57725;47.526;18.986;2023-03-01T04:01:04;12.32;;;8.25;;
70313;SDS011;57725;47.526;18.986;2023-03-01T04:03:32;12.30;;;8.07;;
70313;SDS011;57725;47.526;18.986;2023-03-01T04:06:00;13.00;;;8.82;;
70313;SDS011;57725;47.526;18.986;2023-03-01T04:08:26;11.38;;;8.32;;
70313;SDS011;57725;47.526;18.986;2023-03-01T04:10:56;11.32;;;7.80;;
70313;SDS011;57725;47.526;18.986;2023-03-01T04:13:24;10.90;;;7.57;;
70313;SDS011;57725;47.526;18.986;2023-03-01T04:15:53;11.05;;;7.13;;
70313;SDS011;57725;47.526;18.986;2023-03-01T04:18:20;12.07;;;8.50;;
70313;SDS011;57725;47.526;18.986;2023-03-01T04:20:47;13.32;;;8.20;;
70313;SDS011;57725;47.526;18.986;2023-03-01T04:23:14;13.38;;;8.30;;
70313;SDS011;57725;47.526;18.986;2023-03-01T04:25:54;12.73;;;8.07;;
70313;SDS011;57725;47.526;18.986;2023-03-01T04:28:26;11.05;;;7.97;;
70313;SDS011;57725;47.526;18.986;2023-03-01T04:30:54;13.23;;;8.93;;
70313;SDS011;57725;47.526;18.986;2023-03-01T04:33:21;12.63;;;8.48;;
70313;SDS011;57725;47.526;18.986;2023-03-01T04:35:53;12.23;;;7.75;;
70313;SDS011;57725;47.526;18.986;2023-03-01T04:38:22;12.48;;;8.25;;
70313;SDS011;57725;47.526;18.986;2023-03-01T04:40:48;10.90;;;7.43;;
70313;SDS011;57725;47.526;18.986;2023-03-01T04:43:13;11.93;;;8.18;;
70313;SDS011;57725;47.526;18.986;2023-03-01T04:45:48;12.40;;;8.48;;
70313;SDS011;57725;47.526;18.986;2023-03-01T04:48:16;10.65;;;7.40;;
70313;SDS011;57725;47.526;18.986;2023-03-01T04:50:41;10.55;;;7.72;;
70313;SDS011;57725;47.526;18.986;2023-03-01T04:53:11;11.05;;;7.82;;
70313;SDS011;57725;47.526;18.986;2023-03-01T04:55:37;11.07;;;7.85;;
70313;SDS011;57725;47.526;18.986;2023-03-01T04:58:05;11.93;;;9.25;;
70313;SDS011;57725;47.526;18.986;2023-03-01T05:00:33;12.50;;;7.70;;
70313;SDS011;57725;47.526;18.986;2023-03-01T05:03:01;12.05;;;8.50;;
70313;SDS011;57725;47.526;18.986;2023-03-01T05:05:31;10.25;;;7.13;;
70313;SDS011;57725;47.526;18.986;2023-03-01T05:07:59;9.95;;;7.45;;
70313;SDS011;57725;47.526;18.986;2023-03-01T05:10:27;12.88;;;8.32;;
70313;SDS011;57725;47.526;18.986;2023-03-01T05:13:01;12.68;;;8.30;;
70313;SDS011;57725;47.526;18.986;2023-03-01T05:15:28;12.15;;;8.32;;
70313;SDS011;57725;47.526;18.986;2023-03-01T05:17:56;10.40;;;7.75;;
70313;SDS011;57725;47.526;18.986;2023-03-01T05:20:24;12.82;;;7.95;;
70313;SDS011;57725;47.526;18.986;2023-03-01T05:22:56;11.98;;;7.97;;
70313;SDS011;57725;47.526;18.986;2023-03-01T05:25:24;11.70;;;7.95;;
70313;SDS011;57725;47.526;18.986;2023-03-01T05:27:57;11.88;;;8.52;;
70313;SDS011;57725;47.526;18.986;2023-03-01T05:30:29;12.60;;;7.97;;
70313;SDS011;57725;47.526;18.986;2023-03-01T05:32:55;13.18;;;8.68;;
70313;SDS011;57725;47.526;18.986;2023-03-01T05:35:21;12.55;;;7.85;;
70313;SDS011;57725;47.526;18.986;2023-03-01T05:37:48;12.27;;;8.63;;
70313;SDS011;57725;47.526;18.986;2023-03-01T05:40:16;12.40;;;8.18;;
70313;SDS011;57725;47.526;18.986;2023-03-01T05:42:47;11.50;;;8.27;;
70313;SDS011;57725;47.526;18.986;2023-03-01T05:45:17;13.00;;;8.15;;
70313;SDS011;57725;47.526;18.986;2023-03-01T05:47:43;12.73;;;8.73;;
70313;SDS011;57725;47.526;18.986;2023-03-01T05:50:11;11.60;;;8.32;;
70313;SDS011;57725;47.526;18.986;2023-03-01T05:52:46;11.80;;;7.85;;
70313;SDS011;57725;47.526;18.986;2023-03-01T05:55:19;12.00;;;8.27;;
70313;SDS011;57725;47.526;18.986;2023-03-01T05:57:45;11.10;;;8.05;;
70313;SDS011;57725;47.526;18.986;2023-03-01T06:00:15;13.45;;;8.48;;
70313;SDS011;57725;47.526;18.986;2023-03-01T06:02:45;11.85;;;8.20;;
70313;SDS011;57725;47.526;18.986;2023-03-01T06:05:13;9.57;;;7.07;;
70313;SDS011;57725;47.526;18.986;2023-03-01T06:07:39;12.40;;;8.13;;
70313;SDS011;57725;47.526;18.986;2023-03-01T06:10:07;11.70;;;8.20;;
70313;SDS011;57725;47.526;18.986;2023-03-01T06:12:37;11.10;;;8.02;;
70313;SDS011;57725;47.526;18.986;2023-03-01T06:15:04;13.65;;;8.60;;
70313;SDS011;57725;47.526;18.986;2023-03-01T06:17:32;11.45;;;7.50;;
70313;SDS011;57725;47.526;18.986;2023-03-01T06:20:02;12.70;;;8.13;;
70313;SDS011;57725;47.526;18.986;2023-03-01T06:22:29;12.27;;;8.23;;
70313;SDS011;57725;47.526;18.986;2023-03-01T06:24:58;13.70;;;8.38;;
70313;SDS011;57725;47.526;18.986;2023-03-01T06:27:23;12.07;;;8.35;;
70313;SDS011;57725;47.526;18.986;2023-03-01T06:29:48;11.75;;;7.65;;
70313;SDS011;57725;47.526;18.986;2023-03-01T06:32:14;12.68;;;8.48;;
70313;SDS011;57725;47.526;18.986;2023-03-01T06:34:39;12.30;;;8.55;;
70313;SDS011;57725;47.526;18.986;2023-03-01T06:37:05;11.77;;;8.02;;
70313;SDS011;57725;47.526;18.986;2023-03-01T06:39:33;12.30;;;8.07;;
70313;SDS011;57725;47.526;18.986;2023-03-01T06:41:59;11.18;;;7.68;;
70313;SDS011;57725;47.526;18.986;2023-03-01T06:44:25;13.45;;;7.93;;
70313;SDS011;57725;47.526;18.986;2023-03-01T06:46:50;11.35;;;7.72;;
70313;SDS011;57725;47.526;18.986;2023-03-01T06:49:16;12.07;;;8.32;;
70313;SDS011;57725;47.526;18.986;2023-03-01T06:51:42;10.65;;;7.72;;
70313;SDS011;57725;47.526;18.986;2023-03-01T06:54:08;12.00;;;7.63;;
70313;SDS011;57725;47.526;18.986;2023-03-01T06:56:39;11.23;;;8.15;;
70313;SDS011;57725;47.526;18.986;2023-03-01T06:59:04;12.70;;;8.55;;
70313;SDS011;57725;47.526;18.986;2023-03-01T07:01:30;10.70;;;7.40;;
70313;SDS011;57725;47.526;18.986;2023-03-01T07:03:56;11.02;;;7.65;;
70313;SDS011;57725;47.526;18.986;2023-03-01T07:06:21;11.70;;;8.10;;
70313;SDS011;57725;47.526;18.986;2023-03-01T07:08:49;12.15;;;8.25;;
70313;SDS011;57725;47.526;18.986;2023-03-01T07:11:14;12.18;;;8.45;;
70313;SDS011;57725;47.526;18.986;2023-03-01T07:13:40;11.48;;;7.68;;
70313;SDS011;57725;47.526;18.986;2023-03-01T07:16:09;11.45;;;7.90;;
70313;SDS011;57725;47.526;18.986;2023-03-01T07:18:34;11.45;;;7.88;;
70313;SDS011;57725;47.526;18.986;2023-03-01T07:21:06;11.05;;;7.70;;
70313;SDS011;57725;47.526;18.986;2023-03-01T07:23:34;13.25;;;8.45;;
70313;SDS011;57725;47.526;18.986;2023-03-01T07:26:01;12.10;;;7.47;;
70313;SDS011;57725;47.526;18.986;2023-03-01T07:28:29;10.65;;;7.82;;
70313;SDS011;57725;47.526;18.986;2023-03-01T07:31:00;10.27;;;7.43;;
70313;SDS011;57725;47.526;18.986;2023-03-01T07:33:26;11.52;;;7.53;;
70313;SDS011;57725;47.526;18.986;2023-03-01T07:35:58;12.13;;;7.65;;
70313;SDS011;57725;47.526;18.986;2023-03-01T07:38:24;11.05;;;7.72;;
70313;SDS011;57725;47.526;18.986;2023-03-01T07:40:50;10.40;;;7.72;;
70313;SDS011;57725;47.526;18.986;2023-03-01T07:43:18;11.23;;;7.93;;
70313;SDS011;57725;47.526;18.986;2023-03-01T07:45:44;13.00;;;8.25;;
70313;SDS011;57725;47.526;18.986;2023-03-01T07:48:09;12.02;;;8.15;;
70313;SDS011;57725;47.526;18.986;2023-03-01T07:50:37;10.93;;;7.65;;
70313;SDS011;57725;47.526;18.986;2023-03-01T07:53:05;11.63;;;7.57;;
70313;SDS011;57725;47.526;18.986;2023-03-01T07:55:33;10.88;;;7.15;;
70313;SDS011;57725;47.526;18.986;2023-03-01T07:57:59;11.18;;;7.50;;
70313;SDS011;57725;47.526;18.986;2023-03-01T08:00:24;10.65;;;7.63;;
70313;SDS011;57725;47.526;18.986;2023-03-01T08:02:50;11.70;;;7.53;;
70313;SDS011;57725;47.526;18.986;2023-03-01T08:05:15;10.52;;;7.70;;
70313;SDS011;57725;47.526;18.986;2023-03-01T08:07:44;11.48;;;8.05;;
70313;SDS011;57725;47.526;18.986;2023-03-01T08:10:09;10.75;;;7.75;;
70313;SDS011;57725;47.526;18.986;2023-03-01T08:12:35;10.25;;;7.63;;
70313;SDS011;57725;47.526;18.986;2023-03-01T08:15:03;10.73;;;7.40;;
70313;SDS011;57725;47.526;18.986;2023-03-01T08:17:31;11.88;;;7.97;;
70313;SDS011;57725;47.526;18.986;2023-03-01T08:19:57;10.95;;;8.20;;
70313;SDS011;57725;47.526;18.986;2023-03-01T08:22:22;11.73;;;7.95;;
70313;SDS011;57725;47.526;18.986;2023-03-01T08:24:48;9.73;;;6.85;;
70313;SDS011;57725;47.526;18.986;2023-03-01T08:27:14;13.15;;;7.85;;
70313;SDS011;57725;47.526;18.986;2023-03-01T08:29:40;10.88;;;7.60;;
70313;SDS011;57725;47.526;18.986;2023-03-01T08:32:06;10.00;;;7.05;;
70313;SDS011;57725;47.526;18.986;2023-03-01T08:34:33;11.45;;;7.90;;
70313;SDS011;57725;47.526;18.986;2023-03-01T08:37:00;10.57;;;7.80;;
70313;SDS011;57725;47.526;18.986;2023-03-01T08:39:28;10.18;;;6.80;;
70313;SDS011;57725;47.526;18.986;2023-03-01T08:41:54;12.98;;;8.32;;
70313;SDS011;57725;47.526;18.986;2023-03-01T08:44:22;12.38;;;7.88;;
70313;SDS011;57725;47.526;18.986;2023-03-01T08:46:50;10.40;;;7.13;;
70313;SDS011;57725;47.526;18.986;2023-03-01T08:49:18;10.38;;;6.75;;
70313;SDS011;57725;47.526;18.986;2023-03-01T08:51:49;10.25;;;7.22;;
70313;SDS011;57725;47.526;18.986;2023-03-01T08:54:18;11.00;;;7.63;;
70313;SDS011;57725;47.526;18.986;2023-03-01T08:56:45;9.90;;;7.35;;
70313;SDS011;57725;47.526;18.986;2023-03-01T08:59:11;9.88;;;7.22;;
70313;SDS011;57725;47.526;18.986;2023-03-01T09:01:40;12.75;;;7.43;;
70313;SDS011;57725;47.526;18.986;2023-03-01T09:04:08;9.25;;;7.18;;
70313;SDS011;57725;47.526;18.986;2023-03-01T09:06:41;11.25;;;8.13;;
70313;SDS011;57725;47.526;18.986;2023-03-01T09:09:10;10.73;;;7.10;;
70313;SDS011;57725;47.526;18.986;2023-03-01T09:11:39;10.45;;;7.72;;
70313;SDS011;57725;47.526;18.986;2023-03-01T09:14:05;10.60;;;6.90;;
70313;SDS011;57725;47.526;18.986;2023-03-01T09:16:31;10.15;;;6.97;;
70313;SDS011;57725;47.526;18.986;2023-03-01T09:19:00;10.38;;;6.93;;
70313;SDS011;57725;47.526;18.986;2023-03-01T09:21:27;15.07;;;6.75;;
70313;SDS011;57725;47.526;18.986;2023-03-01T09:23:52;10.88;;;7.35;;
70313;SDS011;57725;47.526;18.986;2023-03-01T09:26:21;10.02;;;6.80;;
70313;SDS011;57725;47.526;18.986;2023-03-01T09:28:48;10.60;;;7.20;;
70313;SDS011;57725;47.526;18.986;2023-03-01T09:31:15;10.95;;;7.72;;
70313;SDS011;57725;47.526;18.986;2023-03-01T09:33:42;10.48;;;7.30;;
70313;SDS011;57725;47.526;18.986;2023-03-01T09:36:15;9.50;;;6.63;;
70313;SDS011;57725;47.526;18.986;2023-03-01T09:38:42;9.63;;;7.00;;
70313;SDS011;57725;47.526;18.986;2023-03-01T09:43:52;10.43;;;6.97;;
70313;SDS011;57725;47.526;18.986;2023-03-01T09:46:23;10.88;;;7.10;;
70313;SDS011;57725;47.526;18.986;2023-03-01T09:54:03;9.55;;;7.25;;
70313;SDS011;57725;47.526;18.986;2023-03-01T09:56:34;12.00;;;7.57;;
70313;SDS011;57725;47.526;18.986;2023-03-01T10:04:54;9.00;;;6.43;;
70313;SDS011;57725;47.526;18.986;2023-03-01T10:07:48;10.40;;;6.85;;
70313;SDS011;57725;47.526;18.986;2023-03-01T10:10:27;10.77;;;7.35;;
70313;SDS011;57725;47.526;18.986;2023-03-01T10:12:57;10.68;;;7.95;;
70313;SDS011;57725;47.526;18.986;2023-03-01T10:15:50;10.15;;;7.05;;
70313;SDS011;57725;47.526;18.986;2023-03-01T10:18:20;10.48;;;7.22;;
70313;SDS011;57725;47.526;18.986;2023-03-01T10:20:55;11.27;;;7.10;;
70313;SDS011;57725;47.526;18.986;2023-03-01T10:23:25;10.25;;;6.95;;
70313;SDS011;57725;47.526;18.986;2023-03-01T10:31:31;10.13;;;7.70;;
70313;SDS011;57725;47.526;18.986;2023-03-01T10:34:02;10.93;;;7.20;;
70313;SDS011;57725;47.526;18.986;2023-03-01T10:36:28;11.65;;;7.70;;
70313;SDS011;57725;47.526;18.986;2023-03-01T10:39:02;10.60;;;7.38;;
70313;SDS011;57725;47.526;18.986;2023-03-01T10:41:58;10.13;;;6.78;;
70313;SDS011;57725;47.526;18.986;2023-03-01T10:44:36;10.75;;;6.85;;
70313;SDS011;57725;47.526;18.986;2023-03-01T10:47:14;11.23;;;7.40;;
70313;SDS011;57725;47.526;18.986;2023-03-01T10:49:42;10.13;;;6.93;;
70313;SDS011;57725;47.526;18.986;2023-03-01T10:52:23;9.68;;;7.35;;
70313;SDS011;57725;47.526;18.986;2023-03-01T10:54:55;10.38;;;7.38;;
70313;SDS011;57725;47.526;18.986;2023-03-01T10:57:27;11.23;;;7.88;;
70313;SDS011;57725;47.526;18.986;2023-03-01T11:00:13;10.02;;;7.03;;
70313;SDS011;57725;47.526;18.986;2023-03-01T11:03:11;10.77;;;6.93;;
70313;SDS011;57725;47.526;18.986;2023-03-01T11:16:43;9.90;;;6.90;;
70313;SDS011;57725;47.526;18.986;2023-03-01T11:19:15;7.78;;;5.00;;
70313;SDS011;57725;47.526;18.986;2023-03-01T11:24:33;9.95;;;6.95;;
70313;SDS011;57725;47.526;18.986;2023-03-01T11:27:33;11.00;;;7.43;;
70313;SDS011;57725;47.526;18.986;2023-03-01T11:30:03;11.07;;;7.15;;
70313;SDS011;57725;47.526;18.986;2023-03-01T11:32:36;10.23;;;7.78;;
70313;SDS011;57725;47.526;18.986;2023-03-01T11:37:44;10.18;;;7.60;;
70313;SDS011;57725;47.526;18.986;2023-03-01T11:40:24;11.35;;;7.53;;
70313;SDS011;57725;47.526;18.986;2023-03-01T11:43:15;12.00;;;8.07;;
70313;SDS011;57725;47.526;18.986;2023-03-01T11:54:03;9.55;;;6.65;;
70313;SDS011;57725;47.526;18.986;2023-03-01T11:56:35;12.50;;;7.38;;
70313;SDS011;57725;47.526;18.986;2023-03-01T12:09:17;11.75;;;7.68;;
70313;SDS011;57725;47.526;18.986;2023-03-01T12:14:37;10.30;;;6.90;;
70313;SDS011;57725;47.526;18.986;2023-03-01T12:34:20;10.68;;;7.70;;
70313;SDS011;57725;47.526;18.986;2023-03-01T12:49:41;10.07;;;7.30;;
70313;SDS011;57725;47.526;18.986;2023-03-01T12:55:29;10.40;;;7.50;;
70313;SDS011;57725;47.526;18.986;2023-03-01T13:00:38;9.63;;;7.10;;
70313;SDS011;57725;47.526;18.986;2023-03-01T13:06:07;10.52;;;7.43;;
70313;SDS011;57725;47.526;18.986;2023-03-01T13:08:47;8.90;;;6.80;;
70313;SDS011;57725;47.526;18.986;2023-03-01T13:11:34;10.02;;;7.15;;
70313;SDS011;57725;47.526;18.986;2023-03-01T13:16:50;10.45;;;6.80;;
70313;SDS011;57725;47.526;18.986;2023-03-01T13:21:46;11.20;;;7.40;;
70313;SDS011;57725;47.526;18.986;2023-03-01T13:24:24;10.05;;;7.03;;
70313;SDS011;57725;47.526;18.986;2023-03-01T13:29:30;11.75;;;7.03;;
70313;SDS011;57725;47.526;18.986;2023-03-01T13:32:24;11.57;;;7.50;;
70313;SDS011;57725;47.526;18.986;2023-03-01T13:37:41;10.90;;;6.43;;
70313;SDS011;57725;47.526;18.986;2023-03-01T13:42:42;10.02;;;6.90;;
70313;SDS011;57725;47.526;18.986;2023-03-01T13:47:42;10.18;;;7.53;;
70313;SDS011;57725;47.526;18.986;2023-03-01T13:50:16;10.80;;;7.45;;
70313;SDS011;57725;47.526;18.986;2023-03-01T13:53:10;10.80;;;7.50;;
70313;SDS011;57725;47.526;18.986;2023-03-01T13:55:42;9.57;;;6.85;;
70313;SDS011;57725;47.526;18.986;2023-03-01T14:03:22;10.10;;;6.65;;
70313;SDS011;57725;47.526;18.986;2023-03-01T14:08:34;10.40;;;6.57;;
70313;SDS011;57725;47.526;18.986;2023-03-01T14:19:03;10.32;;;7.90;;
70313;SDS011;57725;47.526;18.986;2023-03-01T14:24:44;11.57;;;7.30;;
70313;SDS011;57725;47.526;18.986;2023-03-01T14:27:14;10.30;;;6.53;;
70313;SDS011;57725;47.526;18.986;2023-03-01T14:29:41;10.02;;;7.22;;
70313;SDS011;57725;47.526;18.986;2023-03-01T14:34:48;9.27;;;6.53;;
70313;SDS011;57725;47.526;18.986;2023-03-01T14:39:56;9.02;;;6.30;;
70313;SDS011;57725;47.526;18.986;2023-03-01T14:42:23;8.65;;;6.15;;
70313;SDS011;57725;47.526;18.986;2023-03-01T14:44:55;8.73;;;6.32;;
70313;SDS011;57725;47.526;18.986;2023-03-01T14:47:32;9.85;;;6.68;;
70313;SDS011;57725;47.526;18.986;2023-03-01T14:50:14;8.63;;;6.28;;
70313;SDS011;57725;47.526;18.986;2023-03-01T14:52:55;8.32;;;5.82;;
70313;SDS011;57725;47.526;18.986;2023-03-01T14:55:28;9.77;;;6.90;;
70313;SDS011;57725;47.526;18.986;2023-03-01T14:57:54;9.75;;;6.60;;
70313;SDS011;57725;47.526;18.986;2023-03-01T15:00:25;9.43;;;6.22;;
70313;SDS011;57725;47.526;18.986;2023-03-01T15:02:53;8.57;;;6.35;;
70313;SDS011;57725;47.526;18.986;2023-03-01T15:05:23;8.20;;;6.53;;
70313;SDS011;57725;47.526;18.986;2023-03-01T15:07:54;8.73;;;6.72;;
70313;SDS011;57725;47.526;18.986;2023-03-01T15:10:22;8.50;;;6.07;;
70313;SDS011;57725;47.526;18.986;2023-03-01T15:12:52;9.30;;;6.50;;
70313;SDS011;57725;47.526;18.986;2023-03-01T15:15:19;8.68;;;6.03;;
70313;SDS011;57725;47.526;18.986;2023-03-01T15:17:50;8.65;;;6.28;;
70313;SDS011;57725;47.526;18.986;2023-03-01T15:20:20;7.93;;;6.03;;
70313;SDS011;57725;47.526;18.986;2023-03-01T15:22:50;8.23;;;6.20;;
70313;SDS011;57725;47.526;18.986;2023-03-01T15:25:18;7.40;;;5.75;;
70313;SDS011;57725;47.526;18.986;2023-03-01T15:27:45;8.68;;;6.10;;
70313;SDS011;57725;47.526;18.986;2023-03-01T15:30:19;7.93;;;5.43;;
70313;SDS011;57725;47.526;18.986;2023-03-01T15:33:16;9.20;;;5.95;;
70313;SDS011;57725;47.526;18.986;2023-03-01T15:35:50;10.60;;;5.35;;
70313;SDS011;57725;47.526;18.986;2023-03-01T15:40:58;9.07;;;6.43;;
70313;SDS011;57725;47.526;18.986;2023-03-01T15:48:53;8.15;;;5.40;;
70313;SDS011;57725;47.526;18.986;2023-03-01T15:51:33;8.20;;;5.47;;
70313;SDS011;57725;47.526;18.986;2023-03-01T15:54:04;7.32;;;5.68;;
70313;SDS011;57725;47.526;18.986;2023-03-01T15:56:35;7.75;;;5.32;;
70313;SDS011;57725;47.526;18.986;2023-03-01T15:59:04;10.02;;;6.22;;
70313;SDS011;57725;47.526;18.986;2023-03-01T16:01:30;9.25;;;6.38;;
70313;SDS011;57725;47.526;18.986;2023-03-01T16:03:59;6.60;;;5.53;;
70313;SDS011;57725;47.526;18.986;2023-03-01T16:06:24;6.97;;;5.18;;
70313;SDS011;57725;47.526;18.986;2023-03-01T16:08:50;6.60;;;4.97;;
70313;SDS011;57725;47.526;18.986;2023-03-01T16:11:17;7.43;;;5.60;;
70313;SDS011;57725;47.526;18.986;2023-03-01T16:13:44;7.50;;;5.43;;
70313;SDS011;57725;47.526;18.986;2023-03-01T16:16:13;8.02;;;5.50;;
70313;SDS011;57725;47.526;18.986;2023-03-01T16:18:44;8.20;;;5.30;;
70313;SDS011;57725;47.526;18.986;2023-03-01T16:21:23;7.20;;;5.25;;
70313;SDS011;57725;47.526;18.986;2023-03-01T16:23:50;7.15;;;5.30;;
70313;SDS011;57725;47.526;18.986;2023-03-01T16:26:16;8.30;;;5.68;;
70313;SDS011;57725;47.526;18.986;2023-03-01T16:28:44;6.78;;;5.43;;
70313;SDS011;57725;47.526;18.986;2023-03-01T16:31:19;8.50;;;5.30;;
70313;SDS011;57725;47.526;18.986;2023-03-01T16:33:44;8.85;;;5.53;;
70313;SDS011;57725;47.526;18.986;2023-03-01T16:36:14;7.18;;;5.03;;
70313;SDS011;57725;47.526;18.986;2023-03-01T16:38:41;7.85;;;5.47;;
70313;SDS011;57725;47.526;18.986;2023-03-01T16:41:16;6.20;;;4.85;;
70313;SDS011;57725;47.526;18.986;2023-03-01T16:43:44;7.75;;;4.45;;
70313;SDS011;57725;47.526;18.986;2023-03-01T16:46:21;6.82;;;5.18;;
70313;SDS011;57725;47.526;18.986;2023-03-01T16:48:51;7.68;;;5.35;;
70313;SDS011;57725;47.526;18.986;2023-03-01T16:51:19;7.30;;;5.43;;
70313;SDS011;57725;47.526;18.986;2023-03-01T16:53:45;6.65;;;4.65;;
70313;SDS011;57725;47.526;18.986;2023-03-01T16:56:11;5.70;;;4.40;;
70313;SDS011;57725;47.526;18.986;2023-03-01T16:58:39;6.68;;;4.70;;
70313;SDS011;57725;47.526;18.986;2023-03-01T17:01:06;8.82;;;5.32;;
70313;SDS011;57725;47.526;18.986;2023-03-01T17:03:57;7.30;;;4.50;;
70313;SDS011;57725;47.526;18.986;2023-03-01T17:06:23;6.65;;;5.10;;
70313;SDS011;57725;47.526;18.986;2023-03-01T17:08:54;6.05;;;4.43;;
70313;SDS011;57725;47.526;18.986;2023-03-01T17:11:20;6.88;;;5.15;;
70313;SDS011;57725;47.526;18.986;2023-03-01T17:13:45;9.13;;;5.25;;
70313;SDS011;57725;47.526;18.986;2023-03-01T17:16:15;7.60;;;5.35;;